sensor_id;sensor_type;location;lat;lon;timestamp;pressure;altitude;pressure_sealevel;temperature;humidity
32033;BME280;31720;52.638;9.216;2022-11-14T00:01:54;101742.63;;;6.80;100.00
32033;BME280;31720;52.638;9.216;2022-11-14T00:04:56;101731.31;;;6.80;100.00
32033;BME280;31720;52.638;9.216;2022-11-14T00:07:58;101732.22;;;6.79;100.00
32033;BME280;31720;52.638;9.216;2022-11-14T00:11:00;101726.22;;;6.74;100.00
32033;BME280;31720;52.638;9.216;2022-11-14T00:14:01;101730.56;;;6.75;100.00
32033;BME280;31720;52.638;9.216;2022-11-14T00:17:04;101732.22;;;6.79;100.00
32033;BME280;31720;52.638;9.216;2022-11-14T00:20:07;101727.03;;;6.76;100.00
32033;BME280;31720;52.638;9.216;2022-11-14T00:23:11;101719.19;;;6.76;100.00
32033;BME280;31720;52.638;9.216;2022-11-14T00:26:12;101717.44;;;6.78;100.00
32033;BME280;31720;52.638;9.216;2022-11-14T00:29:14;101727.03;;;6.77;100.00
32033;BME280;31720;52.638;9.216;2022-11-14T00:32:16;101719.09;;;6.80;100.00
32033;BME280;31720;52.638;9.216;2022-11-14T00:35:17;101710.44;;;6.78;100.00
32033;BME280;31720;52.638;9.216;2022-11-14T00:38:20;101710.56;;;6.74;100.00
32033;BME280;31720;52.638;9.216;2022-11-14T00:41:22;101699.31;;;6.70;100.00
32033;BME280;31720;52.638;9.216;2022-11-14T00:44:24;101708.16;;;6.65;100.00
32033;BME280;31720;52.638;9.216;2022-11-14T00:47:25;101704.69;;;6.63;100.00
32033;BME280;31720;52.638;9.216;2022-11-14T00:50:26;101699.50;;;6.61;100.00
32033;BME280;31720;52.638;9.216;2022-11-14T00:53:29;101693.44;;;6.60;100.00
32033;BME280;31720;52.638;9.216;2022-11-14T00:56:31;101692.47;;;6.65;100.00
32033;BME280;31720;52.638;9.216;2022-11-14T00:59:32;101689.88;;;6.65;100.00
32033;BME280;31720;52.638;9.216;2022-11-14T01:02:33;101688.97;;;6.66;100.00
32033;BME280;31720;52.638;9.216;2022-11-14T01:05:39;101681.97;;;6.68;100.00
32033;BME280;31720;52.638;9.216;2022-11-14T01:08:42;101675.97;;;6.63;100.00
32033;BME280;31720;52.638;9.216;2022-11-14T01:11:44;101682.97;;;6.60;100.00
32033;BME280;31720;52.638;9.216;2022-11-14T01:14:46;101670.84;;;6.58;100.00
32033;BME280;31720;52.638;9.216;2022-11-14T01:17:47;101671.75;;;6.57;100.00
32033;BME280;31720;52.638;9.216;2022-11-14T01:20:49;101676.97;;;6.57;100.00
32033;BME280;31720;52.638;9.216;2022-11-14T01:23:51;101669.19;;;6.54;100.00
32033;BME280;31720;52.638;9.216;2022-11-14T01:26:53;101668.28;;;6.56;100.00
32033;BME280;31720;52.638;9.216;2022-11-14T01:29:55;101672.59;;;6.59;100.00
32033;BME280;31720;52.638;9.216;2022-11-14T01:32:56;101664.69;;;6.60;100.00
32033;BME280;31720;52.638;9.216;2022-11-14T01:35:58;101665.50;;;6.63;100.00
32033;BME280;31720;52.638;9.216;2022-11-14T01:39:01;101657.69;;;6.63;100.00
32033;BME280;31720;52.638;9.216;2022-11-14T01:42:03;101656.03;;;6.58;100.00
32033;BME280;31720;52.638;9.216;2022-11-14T01:48:41;101635.13;;;6.60;100.00
32033;BME280;31720;52.638;9.216;2022-11-14T01:51:46;101629.94;;;6.57;100.00
32033;BME280;31720;52.638;9.216;2022-11-14T01:54:51;101636.06;;;6.56;100.00
32033;BME280;31720;52.638;9.216;2022-11-14T01:57:54;101627.41;;;6.54;100.00
32033;BME280;31720;52.638;9.216;2022-11-14T02:00:57;101618.66;;;6.56;100.00
32033;BME280;31720;52.638;9.216;2022-11-14T02:04:00;101615.13;;;6.57;100.00
32033;BME280;31720;52.638;9.216;2022-11-14T02:07:02;101612.53;;;6.59;100.00
32033;BME280;31720;52.638;9.216;2022-11-14T02:10:08;101610.72;;;6.61;100.00
32033;BME280;31720;52.638;9.216;2022-11-14T02:13:10;101607.34;;;6.56;100.00
32033;BME280;31720;52.638;9.216;2022-11-14T02:16:11;101595.16;;;6.56;100.00
32033;BME280;31720;52.638;9.216;2022-11-14T02:19:14;101596.81;;;6.60;100.00
32033;BME280;31720;52.638;9.216;2022-11-14T02:22:17;101596.00;;;6.57;100.00
32033;BME280;31720;52.638;9.216;2022-11-14T02:25:18;101595.16;;;6.56;100.00
32033;BME280;31720;52.638;9.216;2022-11-14T02:28:20;101600.44;;;6.53;100.00
32033;BME280;31720;52.638;9.216;2022-11-14T02:31:22;101613.50;;;6.53;100.00
32033;BME280;31720;52.638;9.216;2022-11-14T02:34:23;101600.47;;;6.52;100.00
32033;BME280;31720;52.638;9.216;2022-11-14T02:37:26;101581.31;;;6.53;100.00
32033;BME280;31720;52.638;9.216;2022-11-14T02:40:28;101582.16;;;6.53;100.00
32033;BME280;31720;52.638;9.216;2022-11-14T02:43:29;101582.00;;;6.61;100.00
32033;BME280;31720;52.638;9.216;2022-11-14T02:46:31;101572.50;;;6.57;100.00
32033;BME280;31720;52.638;9.216;2022-11-14T02:49:32;101568.34;;;6.50;100.00
32033;BME280;31720;52.638;9.216;2022-11-14T02:52:35;101567.44;;;6.49;100.00
32033;BME280;31720;52.638;9.216;2022-11-14T02:55:36;101568.25;;;6.53;100.00
32033;BME280;31720;52.638;9.216;2022-11-14T02:58:38;101564.72;;;6.55;100.00
32033;BME280;31720;52.638;9.216;2022-11-14T03:01:39;101562.13;;;6.54;100.00
32033;BME280;31720;52.638;9.216;2022-11-14T03:04:40;101555.16;;;6.54;100.00
32033;BME280;31720;52.638;9.216;2022-11-14T03:07:43;101550.81;;;6.53;100.00
32033;BME280;31720;52.638;9.216;2022-11-14T03:10:44;101541.22;;;6.54;100.00
32033;BME280;31720;52.638;9.216;2022-11-14T03:13:46;101537.75;;;6.55;100.00
32033;BME280;31720;52.638;9.216;2022-11-14T03:16:47;101536.06;;;6.52;100.00
32033;BME280;31720;52.638;9.216;2022-11-14T03:19:49;101550.88;;;6.52;100.00
32033;BME280;31720;52.638;9.216;2022-11-14T03:22:52;101531.66;;;6.54;100.00
32033;BME280;31720;52.638;9.216;2022-11-14T03:25:53;101528.22;;;6.52;100.00
32033;BME280;31720;52.638;9.216;2022-11-14T03:28:55;101534.28;;;6.53;100.00
32033;BME280;31720;52.638;9.216;2022-11-14T03:31:56;101529.91;;;6.55;100.00
32033;BME280;31720;52.638;9.216;2022-11-14T03:34:57;101524.72;;;6.53;100.00
32033;BME280;31720;52.638;9.216;2022-11-14T03:38:00;101527.31;;;6.53;100.00
32033;BME280;31720;52.638;9.216;2022-11-14T03:41:01;101515.28;;;6.48;100.00
32033;BME280;31720;52.638;9.216;2022-11-14T03:44:03;101511.84;;;6.46;100.00
32033;BME280;31720;52.638;9.216;2022-11-14T03:47:04;101515.28;;;6.48;100.00
32033;BME280;31720;52.638;9.216;2022-11-14T03:50:06;101513.50;;;6.50;100.00
32033;BME280;31720;52.638;9.216;2022-11-14T03:53:09;101515.16;;;6.52;100.00
32033;BME280;31720;52.638;9.216;2022-11-14T03:56:11;101520.44;;;6.51;100.00
32033;BME280;31720;52.638;9.216;2022-11-14T03:59:12;101513.50;;;6.50;100.00
32033;BME280;31720;52.638;9.216;2022-11-14T04:02:14;101520.56;;;6.45;100.00
32033;BME280;31720;52.638;9.216;2022-11-14T04:05:15;101514.47;;;6.46;100.00
32033;BME280;31720;52.638;9.216;2022-11-14T04:08:18;101517.06;;;6.46;100.00
32033;BME280;31720;52.638;9.216;2022-11-14T04:11:20;101516.19;;;6.47;100.00
32033;BME280;31720;52.638;9.216;2022-11-14T04:14:21;101503.16;;;6.45;100.00
32033;BME280;31720;52.638;9.216;2022-11-14T04:17:23;101510.16;;;6.43;100.00
32033;BME280;31720;52.638;9.216;2022-11-14T04:20:24;101505.00;;;6.42;100.00
32033;BME280;31720;52.638;9.216;2022-11-14T04:23:27;101491.94;;;6.42;100.00
32033;BME280;31720;52.638;9.216;2022-11-14T04:26:28;101494.50;;;6.43;100.00
32033;BME280;31720;52.638;9.216;2022-11-14T04:29:30;101484.09;;;6.42;100.00
32033;BME280;31720;52.638;9.216;2022-11-14T04:32:31;101477.94;;;6.44;100.00
32033;BME280;31720;52.638;9.216;2022-11-14T04:35:33;101469.22;;;6.45;100.00
32033;BME280;31720;52.638;9.216;2022-11-14T04:38:36;101469.13;;;6.48;100.00
32033;BME280;31720;52.638;9.216;2022-11-14T04:41:38;101462.28;;;6.44;100.00
32033;BME280;31720;52.638;9.216;2022-11-14T04:44:39;101460.56;;;6.43;100.00
32033;BME280;31720;52.638;9.216;2022-11-14T04:47:41;101457.09;;;6.43;100.00
32033;BME280;31720;52.638;9.216;2022-11-14T04:50:44;101461.47;;;6.42;100.00
32033;BME280;31720;52.638;9.216;2022-11-14T04:53:47;101464.97;;;6.41;100.00
32033;BME280;31720;52.638;9.216;2022-11-14T04:56:48;101469.34;;;6.39;100.00
32033;BME280;31720;52.638;9.216;2022-11-14T04:59:50;101470.22;;;6.40;100.00
32033;BME280;31720;52.638;9.216;2022-11-14T05:02:51;101469.28;;;6.42;100.00
32033;BME280;31720;52.638;9.216;2022-11-14T05:05:52;101474.56;;;6.41;100.00
32033;BME280;31720;52.638;9.216;2022-11-14T05:08:55;101468.47;;;6.40;100.00
32033;BME280;31720;52.638;9.216;2022-11-14T05:11:57;101465.84;;;6.40;100.00
32033;BME280;31720;52.638;9.216;2022-11-14T05:14:59;101454.56;;;6.40;100.00
32033;BME280;31720;52.638;9.216;2022-11-14T05:18:00;101453.69;;;6.39;100.00
32033;BME280;31720;52.638;9.216;2022-11-14T05:21:02;101455.44;;;6.39;100.00
32033;BME280;31720;52.638;9.216;2022-11-14T05:24:05;101450.34;;;6.34;100.00
32033;BME280;31720;52.638;9.216;2022-11-14T05:27:06;101438.97;;;6.37;100.00
32033;BME280;31720;52.638;9.216;2022-11-14T05:30:09;101440.75;;;6.36;100.00
32033;BME280;31720;52.638;9.216;2022-11-14T05:33:11;101437.13;;;6.40;100.00
32033;BME280;31720;52.638;9.216;2022-11-14T05:36:13;101422.31;;;6.42;100.00
32033;BME280;31720;52.638;9.216;2022-11-14T05:39:16;101425.75;;;6.43;100.00
32033;BME280;31720;52.638;9.216;2022-11-14T05:42:18;101423.28;;;6.38;100.00
32033;BME280;31720;52.638;9.216;2022-11-14T05:45:19;101418.09;;;6.37;100.00
32033;BME280;31720;52.638;9.216;2022-11-14T05:48:21;101421.56;;;6.37;100.00
32033;BME280;31720;52.638;9.216;2022-11-14T05:51:22;101417.38;;;6.31;100.00
32033;BME280;31720;52.638;9.216;2022-11-14T05:54:25;101412.22;;;6.28;100.00
32033;BME280;31720;52.638;9.216;2022-11-14T05:57:26;101416.47;;;6.32;100.00
32033;BME280;31720;52.638;9.216;2022-11-14T06:00:28;101425.09;;;6.34;100.00
32033;BME280;31720;52.638;9.216;2022-11-14T06:03:31;101429.50;;;6.32;100.00
32033;BME280;31720;52.638;9.216;2022-11-14T06:06:32;101426.97;;;6.29;100.00
32033;BME280;31720;52.638;9.216;2022-11-14T06:09:35;101431.41;;;6.26;100.00
32033;BME280;31720;52.638;9.216;2022-11-14T06:12:37;101433.09;;;6.28;100.00
32033;BME280;31720;52.638;9.216;2022-11-14T06:15:38;101439.13;;;6.30;100.00
32033;BME280;31720;52.638;9.216;2022-11-14T06:18:40;101432.19;;;6.29;100.00
32033;BME280;31720;52.638;9.216;2022-11-14T06:21:42;101435.75;;;6.27;100.00
32033;BME280;31720;52.638;9.216;2022-11-14T06:24:45;101438.34;;;6.27;100.00
32033;BME280;31720;52.638;9.216;2022-11-14T06:27:46;101437.34;;;6.31;100.00
32033;BME280;31720;52.638;9.216;2022-11-14T06:30:47;101432.13;;;6.31;100.00
32033;BME280;31720;52.638;9.216;2022-11-14T06:33:49;101439.22;;;6.26;100.00
32033;BME280;31720;52.638;9.216;2022-11-14T06:36:51;101437.44;;;6.28;100.00
32033;BME280;31720;52.638;9.216;2022-11-14T06:39:53;101432.22;;;6.28;100.00
32033;BME280;31720;52.638;9.216;2022-11-14T06:42:55;101430.47;;;6.28;100.00
32033;BME280;31720;52.638;9.216;2022-11-14T06:45:56;101430.53;;;6.27;100.00
32033;BME280;31720;52.638;9.216;2022-11-14T06:48:58;101433.13;;;6.27;100.00
32033;BME280;31720;52.638;9.216;2022-11-14T06:51:59;101437.41;;;6.29;100.00
32033;BME280;31720;52.638;9.216;2022-11-14T06:55:02;101431.34;;;6.29;100.00
32033;BME280;31720;52.638;9.216;2022-11-14T06:58:04;101425.25;;;6.28;100.00
32033;BME280;31720;52.638;9.216;2022-11-14T07:01:06;101424.34;;;6.29;100.00
32033;BME280;31720;52.638;9.216;2022-11-14T07:04:08;101419.97;;;6.31;100.00
32033;BME280;31720;52.638;9.216;2022-11-14T07:07:10;101409.47;;;6.33;100.00
32033;BME280;31720;52.638;9.216;2022-11-14T07:10:13;101408.63;;;6.32;100.00
32033;BME280;31720;52.638;9.216;2022-11-14T07:13:14;101406.81;;;6.36;100.00
32033;BME280;31720;52.638;9.216;2022-11-14T07:16:16;101405.91;;;6.37;100.00
32033;BME280;31720;52.638;9.216;2022-11-14T07:19:17;101410.28;;;6.37;100.00
32033;BME280;31720;52.638;9.216;2022-11-14T07:22:18;101405.06;;;6.35;100.00
32033;BME280;31720;52.638;9.216;2022-11-14T07:25:21;101412.91;;;6.35;100.00
32033;BME280;31720;52.638;9.216;2022-11-14T07:28:23;101405.91;;;6.37;100.00
32033;BME280;31720;52.638;9.216;2022-11-14T07:31:24;101405.00;;;6.38;100.00
32033;BME280;31720;52.638;9.216;2022-11-14T07:34:26;101411.03;;;6.40;100.00
32033;BME280;31720;52.638;9.216;2022-11-14T07:37:27;101421.47;;;6.40;100.00
32033;BME280;31720;52.638;9.216;2022-11-14T07:40:30;101409.38;;;6.38;100.00
32033;BME280;31720;52.638;9.216;2022-11-14T07:43:31;101412.78;;;6.40;100.00
32033;BME280;31720;52.638;9.216;2022-11-14T07:46:33;101408.34;;;6.43;100.00
32033;BME280;31720;52.638;9.216;2022-11-14T07:49:34;101398.75;;;6.45;100.00
32033;BME280;31720;52.638;9.216;2022-11-14T07:52:36;101403.91;;;6.47;100.00
32033;BME280;31720;52.638;9.216;2022-11-14T07:55:38;101407.38;;;6.47;100.00
32033;BME280;31720;52.638;9.216;2022-11-14T07:58:40;101407.44;;;6.44;100.00
32033;BME280;31720;52.638;9.216;2022-11-14T08:01:42;101405.91;;;6.37;100.00
32033;BME280;31720;52.638;9.216;2022-11-14T08:04:43;101399.84;;;6.35;100.00
32033;BME280;31720;52.638;9.216;2022-11-14T08:07:45;101401.66;;;6.33;100.00
32033;BME280;31720;52.638;9.216;2022-11-14T08:10:48;101413.88;;;6.31;100.00
32033;BME280;31720;52.638;9.216;2022-11-14T08:13:49;101407.84;;;6.29;100.00
32033;BME280;31720;52.638;9.216;2022-11-14T08:16:51;101406.03;;;6.32;100.00
32033;BME280;31720;52.638;9.216;2022-11-14T08:19:52;101405.97;;;6.34;100.00
32033;BME280;31720;52.638;9.216;2022-11-14T08:23:00;101403.31;;;6.35;100.00
32033;BME280;31720;52.638;9.216;2022-11-14T08:26:04;101413.88;;;6.31;100.00
32033;BME280;31720;52.638;9.216;2022-11-14T08:29:05;101418.34;;;6.26;100.00
32033;BME280;31720;52.638;9.216;2022-11-14T08:32:07;101425.25;;;6.28;100.00
32033;BME280;31720;52.638;9.216;2022-11-14T08:35:08;101408.56;;;6.34;100.00
32033;BME280;31720;52.638;9.216;2022-11-14T08:38:10;101415.38;;;6.40;100.00
32033;BME280;31720;52.638;9.216;2022-11-14T08:41:13;101404.03;;;6.42;100.00
32033;BME280;31720;52.638;9.216;2022-11-14T08:44:14;101406.47;;;6.48;100.00
32033;BME280;31720;52.638;9.216;2022-11-14T08:47:16;101408.06;;;6.54;100.00
32033;BME280;31720;52.638;9.216;2022-11-14T08:50:17;101408.84;;;6.57;100.00
32033;BME280;31720;52.638;9.216;2022-11-14T08:53:19;101413.28;;;6.54;100.00
32033;BME280;31720;52.638;9.216;2022-11-14T08:56:22;101414.19;;;6.53;100.00
32033;BME280;31720;52.638;9.216;2022-11-14T08:59:23;101411.69;;;6.48;100.00
32033;BME280;31720;52.638;9.216;2022-11-14T09:02:25;101406.34;;;6.53;100.00
32033;BME280;31720;52.638;9.216;2022-11-14T09:05:26;101408.19;;;6.49;100.00
32033;BME280;31720;52.638;9.216;2022-11-14T09:08:28;101400.31;;;6.51;100.00
32033;BME280;31720;52.638;9.216;2022-11-14T09:11:31;101410.66;;;6.55;100.00
32033;BME280;31720;52.638;9.216;2022-11-14T09:14:33;101403.63;;;6.57;100.00
32033;BME280;31720;52.638;9.216;2022-11-14T09:17:34;101406.03;;;6.65;100.00
32033;BME280;31720;52.638;9.216;2022-11-14T09:20:35;101403.50;;;6.62;100.00
32033;BME280;31720;52.638;9.216;2022-11-14T09:23:37;101406.22;;;6.57;100.00
32033;BME280;31720;52.638;9.216;2022-11-14T09:26:40;101403.63;;;6.57;100.00
32033;BME280;31720;52.638;9.216;2022-11-14T09:29:41;101405.31;;;6.60;100.00
32033;BME280;31720;52.638;9.216;2022-11-14T09:32:43;101401.72;;;6.64;100.00
32033;BME280;31720;52.638;9.216;2022-11-14T09:35:44;101393.84;;;6.66;100.00
32033;BME280;31720;52.638;9.216;2022-11-14T09:38:46;101403.25;;;6.71;100.00
32033;BME280;31720;52.638;9.216;2022-11-14T09:42:03;101397.91;;;6.76;100.00
32033;BME280;31720;52.638;9.216;2022-11-14T09:45:14;101401.47;;;6.73;100.00
32033;BME280;31720;52.638;9.216;2022-11-14T09:48:18;101393.50;;;6.78;100.00
32033;BME280;31720;52.638;9.216;2022-11-14T09:51:22;101397.75;;;6.82;100.00
32033;BME280;31720;52.638;9.216;2022-11-14T09:54:27;101384.72;;;6.80;100.00
32033;BME280;31720;52.638;9.216;2022-11-14T09:57:30;101390.66;;;6.85;100.00
32033;BME280;31720;52.638;9.216;2022-11-14T10:00:39;101378.50;;;6.86;100.00
32033;BME280;31720;52.638;9.216;2022-11-14T10:03:50;101381.91;;;6.88;100.00
32033;BME280;31720;52.638;9.216;2022-11-14T10:06:59;101374.00;;;6.91;100.00
32033;BME280;31720;52.638;9.216;2022-11-14T10:10:09;101368.75;;;6.91;100.00
32033;BME280;31720;52.638;9.216;2022-11-14T10:13:27;101352.19;;;6.92;100.00
32033;BME280;31720;52.638;9.216;2022-11-14T10:16:38;101347.03;;;6.89;100.00
32033;BME280;31720;52.638;9.216;2022-11-14T10:19:46;101347.00;;;6.91;100.00
32033;BME280;31720;52.638;9.216;2022-11-14T10:23:03;101340.78;;;6.95;100.00
32033;BME280;31720;52.638;9.216;2022-11-14T10:26:10;101335.38;;;7.01;100.00
32033;BME280;31720;52.638;9.216;2022-11-14T10:29:43;101320.38;;;7.07;100.00
32033;BME280;31720;52.638;9.216;2022-11-14T10:36:33;101317.81;;;7.06;100.00
32033;BME280;31720;52.638;9.216;2022-11-14T10:39:44;101315.06;;;7.10;100.00
32033;BME280;31720;52.638;9.216;2022-11-14T10:42:49;101314.78;;;7.20;100.00
32033;BME280;31720;52.638;9.216;2022-11-14T10:45:57;101301.63;;;7.23;100.00
32033;BME280;31720;52.638;9.216;2022-11-14T10:49:13;101302.50;;;7.22;100.00
32033;BME280;31720;52.638;9.216;2022-11-14T10:52:19;101301.28;;;7.33;100.00
32033;BME280;31720;52.638;9.216;2022-11-14T10:55:21;101293.94;;;7.45;100.00
32033;BME280;31720;52.638;9.216;2022-11-14T10:58:24;101307.84;;;7.47;100.00
32033;BME280;31720;52.638;9.216;2022-11-14T11:01:35;101298.88;;;7.54;100.00
32033;BME280;31720;52.638;9.216;2022-11-14T11:04:38;101289.75;;;7.67;100.00
32033;BME280;31720;52.638;9.216;2022-11-14T11:07:44;101300.44;;;7.87;100.00
32033;BME280;31720;52.638;9.216;2022-11-14T11:11:03;101293.19;;;8.21;100.00
32033;BME280;31720;52.638;9.216;2022-11-14T11:14:22;101263.50;;;8.47;100.00
32033;BME280;31720;52.638;9.216;2022-11-14T11:17:25;101260.66;;;8.53;100.00
32033;BME280;31720;52.638;9.216;2022-11-14T11:20:30;101278.19;;;8.51;100.00
32033;BME280;31720;52.638;9.216;2022-11-14T11:23:33;101279.16;;;8.48;100.00
32033;BME280;31720;52.638;9.216;2022-11-14T11:26:34;101270.34;;;8.51;100.00
32033;BME280;31720;52.638;9.216;2022-11-14T11:29:36;101269.66;;;8.46;100.00
32033;BME280;31720;52.638;9.216;2022-11-14T11:32:39;101275.16;;;8.38;100.00
32033;BME280;31720;52.638;9.216;2022-11-14T11:35:41;101257.97;;;8.29;100.00
32033;BME280;31720;52.638;9.216;2022-11-14T11:38:44;101268.09;;;8.15;100.00
32033;BME280;31720;52.638;9.216;2022-11-14T11:41:48;101246.88;;;8.23;100.00
32033;BME280;31720;52.638;9.216;2022-11-14T11:44:54;101257.13;;;8.29;100.00
32033;BME280;31720;52.638;9.216;2022-11-14T11:48:03;101253.88;;;8.47;100.00
32033;BME280;31720;52.638;9.216;2022-11-14T11:51:12;101255.19;;;8.59;100.00
32033;BME280;31720;52.638;9.216;2022-11-14T11:54:18;101248.19;;;8.59;100.00
32033;BME280;31720;52.638;9.216;2022-11-14T11:57:24;101245.50;;;8.61;100.00
32033;BME280;31720;52.638;9.216;2022-11-14T12:00:28;101245.84;;;8.52;100.00
32033;BME280;31720;52.638;9.216;2022-11-14T12:03:33;101255.13;;;8.35;100.00
32033;BME280;31720;52.638;9.216;2022-11-14T12:06:39;101246.59;;;8.30;100.00
32033;BME280;31720;52.638;9.216;2022-11-14T12:09:42;101242.03;;;8.37;100.00
32033;BME280;31720;52.638;9.216;2022-11-14T12:12:59;101238.50;;;8.38;100.00
32033;BME280;31720;52.638;9.216;2022-11-14T12:16:11;101233.19;;;8.39;100.00
32033;BME280;31720;52.638;9.216;2022-11-14T12:23:33;101233.38;;;8.33;100.00
32033;BME280;31720;52.638;9.216;2022-11-14T12:26:56;101232.72;;;8.28;100.00
32033;BME280;31720;52.638;9.216;2022-11-14T12:30:11;101230.84;;;8.32;100.00
32033;BME280;31720;52.638;9.216;2022-11-14T12:33:20;101231.78;;;8.29;100.00
32033;BME280;31720;52.638;9.216;2022-11-14T12:36:26;101234.34;;;8.31;100.00
32033;BME280;31720;52.638;9.216;2022-11-14T12:39:30;101231.69;;;8.32;100.00
32033;BME280;31720;52.638;9.216;2022-11-14T12:42:32;101215.91;;;8.34;100.00
32033;BME280;31720;52.638;9.216;2022-11-14T12:45:55;101215.78;;;8.38;100.00
32033;BME280;31720;52.638;9.216;2022-11-14T12:48:58;101211.34;;;8.41;100.00
32033;BME280;31720;52.638;9.216;2022-11-14T12:52:00;101225.13;;;8.46;100.00
32033;BME280;31720;52.638;9.216;2022-11-14T12:55:03;101219.75;;;8.49;100.00
32033;BME280;31720;52.638;9.216;2022-11-14T12:58:06;101214.59;;;8.47;100.00
32033;BME280;31720;52.638;9.216;2022-11-14T13:01:22;101218.16;;;8.45;100.00
32033;BME280;31720;52.638;9.216;2022-11-14T13:04:33;101214.59;;;8.47;100.00
32033;BME280;31720;52.638;9.216;2022-11-14T13:07:44;101211.97;;;8.47;100.00
32033;BME280;31720;52.638;9.216;2022-11-14T13:10:50;101203.31;;;8.45;100.00
32033;BME280;31720;52.638;9.216;2022-11-14T13:13:59;101188.72;;;8.38;100.00
32033;BME280;31720;52.638;9.216;2022-11-14T13:17:24;101190.50;;;8.37;100.00
32033;BME280;31720;52.638;9.216;2022-11-14T13:20:43;101191.50;;;8.33;100.00
32033;BME280;31720;52.638;9.216;2022-11-14T13:24:03;101177.63;;;8.31;100.00
32033;BME280;31720;52.638;9.216;2022-11-14T13:27:24;101172.53;;;8.27;100.00
32033;BME280;31720;52.638;9.216;2022-11-14T13:33:39;101156.94;;;8.24;100.00
32033;BME280;31720;52.638;9.216;2022-11-14T13:36:45;101158.75;;;8.22;100.00
32033;BME280;31720;52.638;9.216;2022-11-14T13:39:58;101151.81;;;8.21;100.00
32033;BME280;31720;52.638;9.216;2022-11-14T13:43:14;101147.50;;;8.20;100.00
32033;BME280;31720;52.638;9.216;2022-11-14T13:46:30;101150.88;;;8.22;100.00
32033;BME280;31720;52.638;9.216;2022-11-14T13:49:50;101139.53;;;8.23;100.00
32033;BME280;31720;52.638;9.216;2022-11-14T13:52:53;101138.63;;;8.24;100.00
32033;BME280;31720;52.638;9.216;2022-11-14T13:55:59;101141.16;;;8.25;100.00
32033;BME280;31720;52.638;9.216;2022-11-14T13:59:25;101134.28;;;8.23;100.00
32033;BME280;31720;52.638;9.216;2022-11-14T14:02:43;101138.84;;;8.18;100.00
32033;BME280;31720;52.638;9.216;2022-11-14T14:06:03;101130.81;;;8.22;100.00
32033;BME280;31720;52.638;9.216;2022-11-14T14:09:21;101131.78;;;8.20;100.00
32033;BME280;31720;52.638;9.216;2022-11-14T14:12:41;101133.66;;;8.16;100.00
32033;BME280;31720;52.638;9.216;2022-11-14T14:15:55;101133.72;;;8.14;100.00
32033;BME280;31720;52.638;9.216;2022-11-14T14:19:06;101134.56;;;8.15;100.00
32033;BME280;31720;52.638;9.216;2022-11-14T14:22:15;101132.88;;;8.14;100.00
32033;BME280;31720;52.638;9.216;2022-11-14T14:25:22;101132.88;;;8.14;100.00
32033;BME280;31720;52.638;9.216;2022-11-14T14:28:32;101127.81;;;8.09;100.00
32033;BME280;31720;52.638;9.216;2022-11-14T14:31:40;101122.44;;;8.12;100.00
32033;BME280;31720;52.638;9.216;2022-11-14T14:34:42;101119.88;;;8.11;100.00
32033;BME280;31720;52.638;9.216;2022-11-14T14:37:49;101126.13;;;8.07;100.00
32033;BME280;31720;52.638;9.216;2022-11-14T14:40:53;101127.13;;;8.04;100.00
32033;BME280;31720;52.638;9.216;2022-11-14T14:43:55;101115.91;;;8.01;100.00
32033;BME280;31720;52.638;9.216;2022-11-14T14:46:58;101114.38;;;7.95;100.00
32033;BME280;31720;52.638;9.216;2022-11-14T14:50:16;101117.03;;;7.94;100.00
32033;BME280;31720;52.638;9.216;2022-11-14T14:53:21;101130.97;;;7.94;100.00
32033;BME280;31720;52.638;9.216;2022-11-14T14:56:23;101110.16;;;7.91;100.00
32033;BME280;31720;52.638;9.216;2022-11-14T14:59:27;101098.03;;;7.88;100.00
32033;BME280;31720;52.638;9.216;2022-11-14T15:02:30;101092.88;;;7.87;100.00
32033;BME280;31720;52.638;9.216;2022-11-14T15:05:32;101085.03;;;7.85;100.00
32033;BME280;31720;52.638;9.216;2022-11-14T15:08:35;101080.72;;;7.84;100.00
32033;BME280;31720;52.638;9.216;2022-11-14T15:11:40;101088.00;;;7.76;100.00
32033;BME280;31720;52.638;9.216;2022-11-14T15:14:42;101086.44;;;7.72;100.00
32033;BME280;31720;52.638;9.216;2022-11-14T15:17:46;101082.25;;;7.67;100.00
32033;BME280;31720;52.638;9.216;2022-11-14T15:21:06;101067.56;;;7.62;100.00
32033;BME280;31720;52.638;9.216;2022-11-14T15:24:14;101059.78;;;7.61;100.00
32033;BME280;31720;52.638;9.216;2022-11-14T15:27:17;101060.75;;;7.58;100.00
32033;BME280;31720;52.638;9.216;2022-11-14T15:30:22;101066.09;;;7.55;100.00
32033;BME280;31720;52.638;9.216;2022-11-14T15:33:28;101062.66;;;7.53;100.00
32033;BME280;31720;52.638;9.216;2022-11-14T15:36:29;101057.59;;;7.49;100.00
32033;BME280;31720;52.638;9.216;2022-11-14T15:39:31;101063.00;;;7.44;100.00
32033;BME280;31720;52.638;9.216;2022-11-14T15:42:32;101064.91;;;7.39;100.00
32033;BME280;31720;52.638;9.216;2022-11-14T15:45:38;101069.47;;;7.34;100.00
32033;BME280;31720;52.638;9.216;2022-11-14T15:48:41;101070.38;;;7.33;100.00
32033;BME280;31720;52.638;9.216;2022-11-14T15:51:44;101074.06;;;7.27;100.00
32033;BME280;31720;52.638;9.216;2022-11-14T15:54:46;101065.38;;;7.27;100.00
32033;BME280;31720;52.638;9.216;2022-11-14T15:57:47;101072.47;;;7.23;100.00
32033;BME280;31720;52.638;9.216;2022-11-14T16:00:51;101071.69;;;7.20;100.00
32033;BME280;31720;52.638;9.216;2022-11-14T16:03:54;101070.00;;;7.19;100.00
32033;BME280;31720;52.638;9.216;2022-11-14T16:06:58;101062.19;;;7.17;100.00
32033;BME280;31720;52.638;9.216;2022-11-14T16:09:59;101052.81;;;7.11;100.00
32033;BME280;31720;52.638;9.216;2022-11-14T16:13:01;101048.44;;;7.12;100.00
32033;BME280;31720;52.638;9.216;2022-11-14T16:16:02;101059.88;;;7.09;100.00
32033;BME280;31720;52.638;9.216;2022-11-14T16:19:05;101058.09;;;7.10;100.00